Wyndham, Australia
Current Conditions -  °F | °C
As of 7:30 AM on Friday 19 Dec 2014 (Local Time) from YPKU Reporting Station
Clear Clear  
Wind Chill: 88°   Ceiling: Unl
Heat Index: 98°   Visibility: 6mi
Dew Point: 75°   Wind: 3mph
Humidity: 66%   Direction: 110°ESE
Pressure: 29.85"   Gusts: NA
Location:  15.48°S, 128.12°E
Report Text: YPKU 182330Z AUTO 11003KT 9999 // NCD 31/24 Q1011
Loading
Personal Weather Stations






























Interactive Weather Map New forecast layout! Learn more

10-Day Weather Forecast

Advertisements
Track Severe Weather on mobile